Flight Track Log - Related Links

Times and Time Zones

All times are in EDT time to prevent confusion due to time zone crossing. See the RPA4907 flight status page for this flight to view local times or setup timezone preferences in your user account.

Time Position Orientation Groundspeed Altitude Reporting Facility
EDT Latitude Longitude Course Direction KTS MPH feet Rate Location/Type
Fri 02:22:00 PM 39.2667 -76.6667 38° Northeast 262 302 4,900  Level Potomac TRACON
Fri 02:22:54 PM 39.2500 -76.5833 104° East 271 312 6,900 2,000 Climbing Potomac TRACON
Fri 02:24:00 PM 39.2167 -76.4833 113° Southeast 283 326 8,900 1,900 Climbing Potomac TRACON
Fri 02:24:54 PM 39.2167 -76.3667 90° East 328 377 10,700 1,105 Climbing Potomac TRACON
Fri 02:25:54 PM 39.2500 -76.2500 70° East 361 415 11,000 600 Climbing Potomac TRACON
Fri 02:26:00 PM 39.5472 -76.0739 70° East  Level Estimated
Fri 02:26:54 PM 39.2833 -76.1333 70° East 371 427 11,900  Level Potomac TRACON
Fri 02:28:14 PM 39.3833 -76.0000 46° Northeast 387 445 12,000 -43 Climbing Philadelphia TRACON
Fri 02:29:14 PM 39.4500 -75.9000 49° Northeast 369 425 11,800 -750 Descending Philadelphia TRACON
Fri 02:30:14 PM 39.5167 -75.8167 44° Northeast 334 384 10,500 -1,350 Descending Philadelphia TRACON
Fri 02:31:14 PM 39.5833 -75.7333 44° Northeast 326 375 9,100 -750 Descending Philadelphia TRACON
Fri 02:32:14 PM 39.6500 -75.6500 44° Northeast 360 414 9,000 -48 Descending Philadelphia TRACON
Fri 02:33:20 PM 39.7000 -75.5167 64° Northeast 368 423 9,000  Level Philadelphia TRACON
Fri 02:34:20 PM 39.7333 -75.4000 70° East 341 392 9,000 -50 Level Philadelphia TRACON
Fri 02:35:20 PM 39.7667 -75.2833 70° East 347 399 8,900 -550 Descending Philadelphia TRACON
Fri 02:36:20 PM 39.8000 -75.1833 67° East 322 371 7,900 -905 Descending Philadelphia TRACON
Fri 02:37:26 PM 39.8333 -75.0667 70° East 322 371 7,000 -429 Descending Philadelphia TRACON
Fri 02:38:26 PM 39.8833 -74.9500 61° Northeast 322 371 7,000  Level Philadelphia TRACON
Fri 02:39:26 PM 39.9500 -74.8667 44° Northeast 323 372 7,000  Level Philadelphia TRACON
Fri 02:40:26 PM 40.0000 -74.7833 52° Northeast 323 372 7,000  Level Philadelphia TRACON
Fri 02:41:24 PM 40.0667 -74.7000 44° Northeast 321 369 7,000  Level New York TRACON
Fri 02:42:18 PM 40.1167 -74.6333 46° Northeast 323 372 7,000  Level New York TRACON
Fri 02:43:24 PM 40.2000 -74.6000 17° North 296 341 7,000 -143 Level New York TRACON
Fri 02:44:24 PM 40.2833 -74.5833 North 299 344 6,700 -500 Descending New York TRACON
Fri 02:45:24 PM 40.3667 -74.5833 360° North 297 342 6,000 -368 Descending New York TRACON
Fri 02:46:18 PM 40.4333 -74.5667 11° North 282 325 6,000  Level New York TRACON
Fri 02:47:24 PM 40.5333 -74.5667 360° North 294 338 6,000  Level New York TRACON
Fri 02:48:24 PM 40.6000 -74.5500 11° North 285 328 6,000 -250 Level New York TRACON
Fri 02:49:24 PM 40.6833 -74.5333 North 283 326 5,500 -450 Descending New York TRACON
Fri 02:50:24 PM 40.7500 -74.5333 360° North 249 287 5,100 -250 Descending New York TRACON
Fri 02:51:24 PM 40.8167 -74.5167 11° North 248 285 5,000  Descending New York TRACON
Fri 02:52:18 PM 40.8833 -74.4833 21° North 267 307 5,100  Climbing New York TRACON
Fri 02:53:24 PM 40.9500 -74.4167 37° Northeast 276 318 5,000 -190 Descending New York TRACON
Fri 02:54:24 PM 40.9500 -74.3167 90° East 274 315 4,700 -474 Descending New York TRACON
Fri 02:55:18 PM 40.9500 -74.2333 90° East 267 307 4,100 -368 Descending New York TRACON
Fri 02:56:18 PM 40.9333 -74.1333 102° East 268 308 4,000 -200 Descending New York TRACON
Fri 02:57:18 PM 40.8833 -74.0833 143° Southeast 202 232 3,700 -450 Descending New York TRACON
Fri 02:58:18 PM 40.8500 -74.0667 159° South 189 217 3,100 -684 Descending New York TRACON
Fri 02:59:12 PM 40.8000 -74.1000 207° Southwest 174 200 2,400 -842 Descending New York TRACON
Fri 03:00:12 PM 40.7667 -74.1167 201° Southwest 163 188 1,500 -800 Descending New York TRACON
Fri 03:01:12 PM 40.7333 -74.1333 201° Southwest 120 138 800 -700 Descending New York TRACON

Login

Don't have an account? Register now (free) for customized features, flight alerts, and more!